Time;durP1;ratioP1;P1;durP2;ratioP2;P2;SDS_P1;SDS_P2;PMS_P1;PMS_P2;Temp;Humidity;BMP_temperature;BMP_pressure;BME280_temperature;BME280_humidity;BME280_pressure;Samples;Min_cycle;Max_cycle;Signal;HPM_P1;HPM_P2
2022/02/07 00:00:14;;;;;;;8.35;1.58;;;;;;;2.49;100.00;100584.22;2090109;28;20029;-59
2022/02/07 00:01:27;;;;;;;10.68;1.55;;;;;;;2.52;100.00;100590.16;2090640;28;20043;-59
2022/02/07 00:02:40;;;;;;;7.50;1.48;;;;;;;2.44;100.00;100590.25;2089973;28;20024;-60
2022/02/07 00:03:47;;;;;;;4.72;1.40;;;;;;;2.50;100.00;100591.91;2090098;28;20021;-60
2022/02/07 00:04:48;;;;;;;4.30;1.27;;;;;;;2.40;100.00;100598.06;2090617;28;20425;-59
2022/02/07 00:05:48;;;;;;;6.80;1.20;;;;;;;2.34;100.00;100605.84;2090634;28;20037;-60
2022/02/07 00:06:48;;;;;;;7.50;1.43;;;;;;;2.42;100.00;100601.44;2090596;28;20363;-59
2022/02/07 00:07:49;;;;;;;8.23;1.73;;;;;;;2.39;100.00;100619.53;2090584;28;20075;-60
2022/02/07 00:08:51;;;;;;;11.75;2.50;;;;;;;2.35;100.00;100621.28;2089910;28;20020;-60
2022/02/07 00:09:51;;;;;;;7.72;1.23;;;;;;;2.35;100.00;100625.56;2089925;28;20028;-60
2022/02/07 00:10:51;;;;;;;8.30;1.87;;;;;;;2.39;100.00;100633.25;2090596;28;20016;-59
2022/02/07 00:11:52;;;;;;;5.37;1.20;;;;;;;2.41;100.00;100628.97;2089820;28;20060;-58
2022/02/07 00:12:52;;;;;;;4.93;1.23;;;;;;;2.41;100.00;100638.41;2089980;28;20107;-60
2022/02/07 00:13:52;;;;;;;7.23;1.00;;;;;;;2.37;100.00;100647.03;2089901;28;20478;-59
2022/02/07 00:14:52;;;;;;;8.07;0.70;;;;;;;2.43;100.00;100646.97;2089933;28;20063;-60
2022/02/07 00:15:53;;;;;;;7.00;1.93;;;;;;;2.48;100.00;100650.34;2090455;28;20524;-59
2022/02/07 00:16:53;;;;;;;6.50;1.60;;;;;;;2.53;100.00;100653.69;2090509;28;20082;-60
2022/02/07 00:17:53;;;;;;;4.37;0.93;;;;;;;2.49;100.00;100657.19;2090337;28;20029;-60
2022/02/07 00:18:54;;;;;;;6.83;1.27;;;;;;;2.51;100.00;100670.91;2090551;28;20059;-59
2022/02/07 00:19:57;;;;;;;3.63;0.97;;;;;;;2.52;100.00;100667.47;2090553;28;20036;-59
2022/02/07 00:20:57;;;;;;;6.30;1.65;;;;;;;2.49;100.00;100676.97;2090467;28;20383;-59
2022/02/07 00:21:59;;;;;;;9.15;1.10;;;;;;;2.50;100.00;100678.66;2090505;28;20112;-59
2022/02/07 00:23:00;;;;;;;5.10;1.30;;;;;;;2.46;100.00;100682.97;2089821;28;20568;-58
2022/02/07 00:24:00;;;;;;;6.72;1.05;;;;;;;2.47;100.00;100679.56;2081502;28;20040;-59
2022/02/07 00:25:00;;;;;;;7.87;1.53;;;;;;;2.48;100.00;100694.13;2089873;28;20029;-59
2022/02/07 00:26:01;;;;;;;8.53;1.60;;;;;;;2.43;100.00;100688.19;2090463;28;20021;-59
2022/02/07 00:27:01;;;;;;;5.83;1.77;;;;;;;2.46;100.00;100697.59;2090467;28;20025;-60
2022/02/07 00:28:02;;;;;;;8.13;2.43;;;;;;;2.42;100.00;100699.34;2090445;28;20106;-60
2022/02/07 00:29:03;;;;;;;6.00;1.20;;;;;;;2.46;100.00;100701.00;2089732;28;20055;-60
2022/02/07 00:30:06;;;;;;;14.50;1.77;;;;;;;2.44;100.00;100701.03;2089786;28;20074;-59
2022/02/07 00:31:06;;;;;;;3.28;0.90;;;;;;;2.34;100.00;100703.72;2089728;28;20037;-59
2022/02/07 00:32:07;;;;;;;5.50;1.20;;;;;;;2.33;100.00;100708.03;2089845;28;20123;-60
2022/02/07 00:33:07;;;;;;;3.70;0.75;;;;;;;2.31;100.00;100714.91;2090377;28;20386;-61
2022/02/07 00:34:07;;;;;;;10.53;2.83;;;;;;;2.39;100.00;100712.28;2090405;28;20052;-59
2022/02/07 00:35:13;;;;;;;9.50;3.07;;;;;;;2.34;100.00;100714.88;2090429;28;20037;-59
2022/02/07 00:36:17;;;;;;;5.75;1.13;;;;;;;2.35;100.00;100716.59;2090285;28;20021;-59
2022/02/07 00:37:17;;;;;;;7.18;1.50;;;;;;;2.28;100.00;100730.38;2090356;28;20021;-59
2022/02/07 00:38:20;;;;;;;8.30;1.53;;;;;;;2.20;100.00;100733.06;2090366;28;20470;-59
2022/02/07 00:39:29;;;;;;;6.25;1.63;;;;;;;2.25;100.00;100731.28;2090365;28;20538;-58
2022/02/07 00:42:02;;;;;;;7.18;1.52;;;;;;;2.38;100.00;100736.31;2089308;28;20398;-58
2022/02/07 00:43:14;;;;;;;9.05;1.45;;;;;;;2.45;100.00;100743.09;2089684;28;20032;-60
2022/02/07 00:44:17;;;;;;;7.38;1.75;;;;;;;2.46;100.00;100757.69;2089821;28;20052;-59
2022/02/07 00:46:35;;;;;;;8.65;1.23;;;;;;;2.51;100.00;100755.94;2090316;28;20090;-58
2022/02/07 00:47:35;;;;;;;6.30;1.20;;;;;;;2.51;100.00;100757.66;2090280;28;20025;-59
2022/02/07 00:48:38;;;;;;;7.93;1.40;;;;;;;2.65;100.00;100762.66;2090247;28;20473;-59
2022/02/07 00:49:38;;;;;;;12.60;1.73;;;;;;;2.63;100.00;100775.56;2090290;28;20049;-60
2022/02/07 00:50:41;;;;;;;10.30;1.60;;;;;;;2.59;100.00;100770.47;2090289;28;20040;-60
2022/02/07 00:51:41;;;;;;;9.27;2.38;;;;;;;2.68;100.00;100780.66;2089555;28;20024;-60
2022/02/07 00:52:41;;;;;;;8.50;1.90;;;;;;;2.75;99.89;100784.03;2089695;28;20012;-59
2022/02/07 00:53:41;;;;;;;13.67;2.30;;;;;;;2.86;98.87;100782.19;2090302;28;20485;-59
2022/02/07 00:54:42;;;;;;;9.07;1.90;;;;;;;2.86;97.75;100789.06;2090274;28;20033;-60
2022/02/07 00:55:42;;;;;;;13.53;2.43;;;;;;;2.84;97.53;100794.22;2090318;28;20102;-59
2022/02/07 00:56:43;;;;;;;4.13;0.85;;;;;;;2.85;97.21;100797.66;2090275;28;20031;-59
2022/02/07 00:57:43;;;;;;;6.10;1.50;;;;;;;2.96;96.00;100803.56;2090251;28;20039;-59
2022/02/07 00:58:43;;;;;;;7.13;1.07;;;;;;;2.99;96.92;100815.56;2089542;28;20069;-59
2022/02/07 00:59:43;;;;;;;5.37;1.87;;;;;;;3.02;95.24;100818.97;2089590;28;20017;-60
2022/02/07 01:00:44;;;;;;;4.97;1.00;;;;;;;3.07;91.92;100819.75;2090083;28;20095;-59
2022/02/07 01:01:44;;;;;;;3.33;1.03;;;;;;;3.20;91.07;100814.47;2090220;28;20537;-58
2022/02/07 01:02:45;;;;;;;6.63;1.27;;;;;;;3.25;91.53;100817.00;2090239;28;20064;-58
2022/02/07 01:03:46;;;;;;;;;;;;;;;3.19;92.82;100811.00;2090604;28;20025;-59
2022/02/07 01:04:46;;;;;;;13.40;0.77;;;;;;;3.05;90.56;100836.13;2090175;28;20427;-58
2022/02/07 01:05:48;;;;;;;4.17;0.60;;;;;;;2.96;90.72;100835.38;2090269;28;20029;-58
2022/02/07 01:06:48;;;;;;;4.97;0.47;;;;;;;2.83;91.72;100831.19;2090168;28;20484;-59
2022/02/07 01:07:50;;;;;;;11.13;1.13;;;;;;;2.84;91.78;100827.72;2090230;28;20021;-58
2022/02/07 01:09:03;;;;;;;3.63;0.77;;;;;;;2.76;91.92;100830.41;2090150;28;20036;-58
2022/02/07 01:10:05;;;;;;;2.70;0.98;;;;;;;2.65;91.84;100839.97;2090147;28;20375;-58
2022/02/07 01:11:14;;;;;;;1.33;0.32;;;;;;;2.55;93.10;100840.06;2090187;28;20021;-58
2022/02/07 01:16:49;;;;;;;2.45;0.35;;;;;;;2.33;93.14;100843.69;2090251;28;20032;-59
2022/02/07 01:19:35;;;;;;;1.42;0.47;;;;;;;2.13;94.46;100854.97;2090098;28;20030;-59
2022/02/07 01:21:16;;;;;;;1.45;0.40;;;;;;;2.12;94.41;100854.13;2090082;28;20054;-58
2022/02/07 01:22:44;;;;;;;2.60;0.22;;;;;;;2.12;95.18;100866.16;2089940;28;20116;-58
2022/02/07 01:46:23;;;;;;;6.20;1.45;;;;;;;2.58;95.25;100986.03;2091696;28;20028;-60
2022/02/07 01:49:51;;;;;;;3.73;1.00;;;;;;;2.64;95.57;101005.75;2091690;28;20029;-59
2022/02/07 01:51:03;;;;;;;4.95;1.23;;;;;;;2.64;95.01;101001.44;2091536;28;20028;-59
2022/02/07 01:55:08;;;;;;;4.47;0.50;;;;;;;2.49;93.91;101006.72;2080630;28;20037;-59
2022/02/07 01:56:10;;;;;;;5.03;0.53;;;;;;;2.46;93.99;101012.72;2091493;28;20078;-59
2022/02/07 01:57:12;;;;;;;2.60;0.60;;;;;;;2.39;93.76;101001.59;2090881;28;20807;-59
2022/02/07 01:58:12;;;;;;;4.00;0.57;;;;;;;2.37;94.08;101023.97;2090903;28;20139;-59
2022/02/07 01:59:13;;;;;;;3.43;0.70;;;;;;;2.28;93.86;101024.84;2091564;28;20032;-59
2022/02/07 02:00:17;;;;;;;4.78;0.75;;;;;;;2.23;94.28;101029.19;2091518;28;20106;-59
2022/02/07 02:01:17;;;;;;;2.08;0.52;;;;;;;2.13;94.71;101028.38;2091457;28;20025;-59
2022/02/07 02:02:17;;;;;;;2.90;0.63;;;;;;;2.13;95.96;101030.06;2091450;28;20033;-59
2022/02/07 02:03:18;;;;;;;1.23;0.43;;;;;;;2.14;95.89;101032.66;2091411;28;20406;-59
2022/02/07 02:04:19;;;;;;;8.48;1.42;;;;;;;2.16;96.27;101040.38;2090820;28;20040;-59
2022/02/07 02:05:19;;;;;;;5.20;0.70;;;;;;;2.16;96.29;101046.34;2090920;28;20029;-59
2022/02/07 02:06:21;;;;;;;2.42;0.57;;;;;;;2.23;98.11;101057.50;2091452;28;20024;-59
2022/02/07 02:07:22;;;;;;;6.53;1.35;;;;;;;2.19;96.97;101076.41;2091382;28;20478;-59
2022/02/07 02:08:22;;;;;;;5.27;0.80;;;;;;;2.18;96.91;101096.16;2091538;28;20029;-59
2022/02/07 02:09:26;;;;;;;5.40;1.70;;;;;;;2.29;96.00;101098.69;2091535;28;20112;-59
2022/02/07 02:10:26;;;;;;;4.22;1.10;;;;;;;2.30;96.75;101115.00;2091403;28;20078;-59
2022/02/07 02:11:26;;;;;;;5.73;1.27;;;;;;;2.27;97.73;101115.88;2091505;28;20013;-60
2022/02/07 02:12:30;;;;;;;2.57;0.40;;;;;;;2.25;97.56;101121.88;2091441;28;20035;-59
2022/02/07 02:13:54;;;;;;;6.97;1.05;;;;;;;2.24;98.13;101117.59;2091340;28;20100;-59
2022/02/07 02:16:09;;;;;;;4.55;1.17;;;;;;;2.26;97.94;101079.81;2091511;28;20389;-59
2022/02/07 02:22:09;;;;;;;5.18;0.52;;;;;;;1.72;100.00;101110.00;2091460;28;20049;-59
2022/02/07 02:36:30;;;;;;;4.68;1.33;;;;;;;1.66;100.00;101158.88;2091358;28;20047;-59
2022/02/07 02:37:43;;;;;;;4.45;0.90;;;;;;;1.68;100.00;101162.31;2091246;28;20475;-59
2022/02/07 02:45:25;;;;;;;5.55;1.10;;;;;;;1.98;100.00;101155.41;2091383;28;20048;-59
2022/02/07 02:45:40;;;;;;;7.82;1.10;;;;;;;2.25;100.00;101163.94;2091305;28;20025;-59
2022/02/07 02:46:40;;;;;;;4.23;1.20;;;;;;;2.15;100.00;101173.41;2091309;28;20036;-59
2022/02/07 02:47:41;;;;;;;4.97;0.93;;;;;;;2.06;100.00;101176.84;2091086;28;20290;-60
2022/02/07 02:48:42;;;;;;;8.37;1.20;;;;;;;2.01;100.00;101170.84;2091208;28;20017;-59
2022/02/07 02:49:47;;;;;;;7.45;0.50;;;;;;;2.07;100.00;101180.28;2091246;28;20013;-58
2022/02/07 02:50:51;;;;;;;5.88;0.80;;;;;;;2.08;100.00;101181.16;2091094;28;20052;-59
2022/02/07 02:51:51;;;;;;;3.75;1.55;;;;;;;2.05;100.00;101182.00;2090466;28;20025;-60
2022/02/07 02:52:51;;;;;;;2.90;1.17;;;;;;;2.02;100.00;101185.44;2090535;28;20664;-59
2022/02/07 02:53:52;;;;;;;9.80;1.93;;;;;;;2.09;100.00;101182.88;2090606;28;20115;-59
2022/02/07 02:54:52;;;;;;;4.37;1.43;;;;;;;2.05;100.00;101188.00;2091173;28;20081;-59
2022/02/07 02:55:52;;;;;;;12.30;2.47;;;;;;;1.97;100.00;101194.88;2091143;28;20029;-60
2022/02/07 02:56:53;;;;;;;8.83;1.43;;;;;;;2.00;100.00;101199.16;2091225;28;20067;-59
2022/02/07 02:57:53;;;;;;;10.03;1.40;;;;;;;2.08;100.00;101201.75;2091157;28;20079;-60
2022/02/07 02:58:53;;;;;;;6.03;1.17;;;;;;;2.02;100.00;101197.47;2091141;28;20028;-58
2022/02/07 02:59:54;;;;;;;6.40;1.50;;;;;;;2.05;100.00;101206.03;2091165;28;20036;-59
2022/02/07 03:00:54;;;;;;;8.77;1.53;;;;;;;2.01;100.00;101217.19;2091061;28;20036;-59
2022/02/07 03:01:54;;;;;;;5.30;1.10;;;;;;;2.02;99.94;101223.22;2091240;28;20024;-59
2022/02/07 03:02:55;;;;;;;5.13;1.03;;;;;;;2.13;100.00;101228.34;2091176;28;20283;-59
2022/02/07 03:03:55;;;;;;;5.10;1.20;;;;;;;2.14;100.00;101232.63;2091089;28;20116;-59
2022/02/07 03:04:55;;;;;;;4.33;1.23;;;;;;;2.10;100.00;101228.34;2090502;28;20033;-59
2022/02/07 03:05:55;;;;;;;5.77;0.73;;;;;;;2.21;100.00;101234.34;2090507;28;20125;-59
2022/02/07 03:06:56;;;;;;;5.90;1.27;;;;;;;2.21;100.00;101224.03;2091120;28;20036;-58
2022/02/07 03:07:57;;;;;;;7.47;1.80;;;;;;;2.18;99.32;101239.50;2090343;28;20062;-59
2022/02/07 03:08:59;;;;;;;8.80;1.60;;;;;;;2.11;99.11;101237.78;2090512;28;20110;-60
2022/02/07 03:10:01;;;;;;;11.77;1.40;;;;;;;2.08;98.86;101250.69;2090984;28;20104;-59
2022/02/07 03:11:05;;;;;;;9.00;2.63;;;;;;;2.14;99.21;101241.22;2091043;28;20028;-60
2022/02/07 03:12:07;;;;;;;8.02;1.25;;;;;;;2.14;98.92;101248.09;2091038;28;20025;-60
2022/02/07 03:13:17;;;;;;;5.03;1.23;;;;;;;2.11;98.50;101248.06;2090977;28;20033;-59
2022/02/07 03:14:33;;;;;;;13.80;2.42;;;;;;;2.12;99.06;101254.97;2091079;28;20043;-59
2022/02/07 03:16:52;;;;;;;7.55;1.48;;;;;;;2.13;98.59;101261.81;2091106;28;20032;-60
2022/02/07 03:17:52;;;;;;;5.57;2.33;;;;;;;2.13;98.68;101264.41;2090989;28;20104;-59
2022/02/07 03:18:52;;;;;;;6.47;1.07;;;;;;;2.06;98.52;101266.13;2091029;28;20478;-59
2022/02/07 03:19:53;;;;;;;6.63;1.60;;;;;;;2.21;97.68;101277.25;2090995;28;20040;-59
2022/02/07 03:20:56;;;;;;;4.73;1.50;;;;;;;2.22;98.52;101274.69;2090308;28;20039;-59
2022/02/07 03:21:56;;;;;;;6.55;1.33;;;;;;;2.31;97.47;101277.28;2090380;28;20021;-60
2022/02/07 03:22:56;;;;;;;9.43;2.13;;;;;;;2.42;98.30;101281.53;2091035;28;20520;-59
2022/02/07 03:23:57;;;;;;;10.20;2.67;;;;;;;2.41;97.90;101285.84;2090925;28;20055;-59
2022/02/07 03:24:57;;;;;;;8.30;1.73;;;;;;;2.31;97.07;101291.84;2091012;28;20123;-59
2022/02/07 03:25:57;;;;;;;7.13;1.30;;;;;;;2.20;96.90;101289.28;2090898;28;20027;-59
2022/02/07 03:26:57;;;;;;;6.40;2.00;;;;;;;2.14;96.34;101294.44;2090937;28;20033;-59
2022/02/07 03:27:58;;;;;;;2.70;0.97;;;;;;;2.16;97.32;101290.16;2090199;28;20043;-59
2022/02/07 03:28:58;;;;;;;5.83;1.77;;;;;;;2.22;97.84;101294.44;2090370;28;20060;-60
2022/02/07 03:29:58;;;;;;;5.73;1.27;;;;;;;2.13;97.40;101298.75;2090922;28;20032;-60
2022/02/07 03:30:58;;;;;;;5.17;0.97;;;;;;;2.11;97.37;101294.41;2090845;28;20028;-59
2022/02/07 03:31:59;;;;;;;4.80;0.80;;;;;;;2.10;97.32;101295.28;2090929;28;20028;-60
2022/02/07 03:32:59;;;;;;;8.90;1.43;;;;;;;2.19;97.49;101297.88;2090921;28;20029;-59
2022/02/07 03:33:59;;;;;;;10.47;2.20;;;;;;;2.38;96.13;101303.00;2090886;28;20466;-59
2022/02/07 03:35:00;;;;;;;5.87;1.40;;;;;;;2.47;96.16;101304.72;2090901;28;20084;-59
2022/02/07 03:36:00;;;;;;;21.17;3.40;;;;;;;2.58;95.45;101310.72;2090210;28;20041;-59
2022/02/07 03:37:00;;;;;;;10.27;1.33;;;;;;;2.67;94.94;101309.84;2090291;28;20032;-59
2022/02/07 03:38:02;;;;;;;6.43;1.43;;;;;;;2.81;96.56;101313.25;2090744;28;20037;-59
2022/02/07 03:39:03;;;;;;;5.45;1.08;;;;;;;2.82;96.36;101308.97;2090144;28;20075;-59
2022/02/07 03:40:04;;;;;;;7.05;2.25;;;;;;;2.75;93.85;101320.13;2090205;28;20444;-60
2022/02/07 03:41:04;;;;;;;6.55;0.90;;;;;;;2.85;96.57;101319.25;2090170;28;20033;-60
2022/02/07 03:42:05;;;;;;;9.68;1.20;;;;;;;2.77;94.55;101323.59;2090161;28;20029;-60
2022/02/07 03:43:05;;;;;;;9.50;1.50;;;;;;;2.67;93.14;101322.75;2090829;28;20040;-59
2022/02/07 03:44:06;;;;;;;13.83;1.77;;;;;;;2.62;94.06;101327.03;2090785;28;20031;-61
2022/02/07 03:45:06;;;;;;;6.53;1.00;;;;;;;2.61;94.63;101325.31;2090812;28;20032;-60
2022/02/07 03:46:07;;;;;;;4.80;1.05;;;;;;;2.55;94.27;101334.78;2090795;28;20033;-60
2022/02/07 03:47:07;;;;;;;9.17;1.93;;;;;;;2.52;94.13;101331.34;2090802;28;20056;-59
2022/02/07 03:48:07;;;;;;;4.00;1.17;;;;;;;2.50;93.97;101333.06;2090603;28;20057;-60
2022/02/07 03:49:07;;;;;;;3.03;0.70;;;;;;;2.54;94.15;101335.63;2090778;28;20082;-59
2022/02/07 03:50:09;;;;;;;6.13;1.23;;;;;;;2.64;95.17;101338.22;2090710;28;20485;-61
2022/02/07 03:51:10;;;;;;;12.60;1.77;;;;;;;2.71;96.04;101342.50;2090701;28;20029;-60
2022/02/07 03:52:10;;;;;;;10.20;1.48;;;;;;;2.77;94.97;101351.94;2090557;28;20096;-61
2022/02/07 03:53:10;;;;;;;6.03;1.27;;;;;;;2.67;93.49;101356.25;2090465;28;20505;-60
2022/02/07 03:54:11;;;;;;;5.10;1.33;;;;;;;2.56;93.00;101354.53;2090733;28;20464;-59
2022/02/07 03:55:11;;;;;;;7.37;1.20;;;;;;;2.52;93.88;101359.69;2090708;28;20086;-61
2022/02/07 03:56:12;;;;;;;7.33;1.70;;;;;;;2.46;95.46;101357.97;2090003;28;20057;-59
2022/02/07 03:57:12;;;;;;;5.72;1.08;;;;;;;2.39;94.96;101366.56;2090051;28;20032;-59
2022/02/07 03:58:12;;;;;;;12.23;2.10;;;;;;;2.40;96.01;101363.13;2090642;28;20488;-59
2022/02/07 03:59:12;;;;;;;7.83;1.40;;;;;;;2.39;96.10;101376.88;2089942;28;20032;-59
2022/02/07 04:00:14;;;;;;;8.90;1.80;;;;;;;2.27;95.92;101365.72;2090094;28;20032;-60
2022/02/07 04:01:15;;;;;;;6.60;1.50;;;;;;;2.21;96.57;101378.56;2090607;28;20025;-60
2022/02/07 04:02:15;;;;;;;8.00;1.83;;;;;;;2.13;96.93;101375.13;2090555;28;20020;-60
2022/02/07 04:03:22;;;;;;;13.87;1.63;;;;;;;2.26;97.69;101376.84;2090596;28;20082;-60
2022/02/07 04:04:22;;;;;;;10.50;1.63;;;;;;;2.19;97.66;101373.41;2090547;28;20778;-58
2022/02/07 04:06:34;;;;;;;7.90;2.20;;;;;;;2.12;97.62;101383.72;2090551;28;20055;-60
2022/02/07 04:07:35;;;;;;;6.07;1.63;;;;;;;2.02;97.68;101381.09;2090589;28;20568;-60
2022/02/07 04:08:39;;;;;;;11.17;1.83;;;;;;;1.93;97.70;101383.66;2090563;28;20400;-60
2022/02/07 04:09:45;;;;;;;5.20;1.08;;;;;;;1.95;98.74;101389.66;2090487;28;20424;-60
2022/02/07 04:11:58;;;;;;;9.77;1.80;;;;;;;1.85;99.70;101395.66;2089896;28;20035;-60
2022/02/07 04:13:02;;;;;;;7.68;2.20;;;;;;;1.83;99.64;101403.38;2090489;28;20024;-60
2022/02/07 04:14:02;;;;;;;18.42;2.50;;;;;;;1.98;99.91;101412.84;2090380;28;20035;-60
2022/02/07 04:15:05;;;;;;;14.53;2.40;;;;;;;1.92;99.92;101412.84;2090493;28;20040;-60
2022/02/07 04:16:06;;;;;;;8.88;1.98;;;;;;;1.93;100.00;101415.44;2090444;28;20056;-60
2022/02/07 04:17:10;;;;;;;4.90;1.33;;;;;;;1.87;100.00;101420.56;2090516;28;20103;-59
2022/02/07 04:18:14;;;;;;;9.23;1.70;;;;;;;1.79;100.00;101423.09;2090498;28;20029;-60
2022/02/07 04:19:18;;;;;;;11.93;2.05;;;;;;;1.90;100.00;101419.69;2089837;28;20035;-60
2022/02/07 04:20:18;;;;;;;6.97;1.55;;;;;;;1.87;100.00;101436.00;2089922;28;20025;-60
2022/02/07 04:21:19;;;;;;;7.80;1.55;;;;;;;1.93;100.00;101435.16;2090527;28;20117;-60
2022/02/07 04:22:19;;;;;;;10.38;2.40;;;;;;;2.01;100.00;101435.16;2090487;28;20035;-60
2022/02/07 04:23:20;;;;;;;8.23;2.10;;;;;;;2.02;100.00;101429.19;2090423;28;20064;-60
2022/02/07 04:24:20;;;;;;;11.75;1.88;;;;;;;2.02;100.00;101434.34;2090456;28;20037;-59
2022/02/07 04:25:20;;;;;;;11.03;3.07;;;;;;;1.99;100.00;101445.47;2089776;28;20028;-60
2022/02/07 04:26:21;;;;;;;6.83;1.70;;;;;;;1.98;100.00;101443.75;2089859;28;20138;-59
2022/02/07 04:27:21;;;;;;;4.13;1.37;;;;;;;2.06;100.00;101442.06;2089712;28;20493;-60
2022/02/07 04:28:22;;;;;;;7.83;2.77;;;;;;;2.04;100.00;101448.94;2081610;28;20029;-60
2022/02/07 04:29:22;;;;;;;;;;;;;;;2.03;100.00;101452.38;2082018;28;20036;-59
2022/02/07 04:30:23;;;;;;;7.28;1.73;;;;;;;2.02;100.00;101453.19;2089767;28;19918;-60
2022/02/07 04:31:23;;;;;;;9.87;1.50;;;;;;;2.15;100.00;101456.69;2090414;28;20436;-59
2022/02/07 04:32:23;;;;;;;5.87;1.77;;;;;;;2.23;100.00;101459.28;2090465;28;20457;-60
2022/02/07 04:33:23;;;;;;;4.97;1.20;;;;;;;2.28;100.00;101467.88;2090381;28;20096;-59
2022/02/07 04:34:24;;;;;;;7.13;1.47;;;;;;;2.31;100.00;101470.47;2090438;28;20028;-60
2022/02/07 04:35:25;;;;;;;6.67;1.50;;;;;;;2.35;100.00;101470.44;2089776;28;20486;-60
2022/02/07 04:36:25;;;;;;;;;;;;;;;2.52;100.00;101481.66;2090232;28;20029;-59
2022/02/07 04:37:26;;;;;;;10.90;2.50;;;;;;;2.55;100.00;101476.50;2090343;28;19956;-59
2022/02/07 04:38:26;;;;;;;6.27;1.53;;;;;;;2.64;100.00;101474.81;2090315;28;20029;-60
2022/02/07 04:39:26;;;;;;;6.67;1.80;;;;;;;2.60;99.17;101478.22;2090297;28;20295;-60
2022/02/07 04:40:27;;;;;;;5.33;1.53;;;;;;;2.69;99.39;101488.53;2090417;28;20047;-60
2022/02/07 04:41:27;;;;;;;9.43;2.53;;;;;;;2.66;98.59;101491.09;2090370;28;20031;-60
2022/02/07 04:42:28;;;;;;;4.90;0.87;;;;;;;2.76;99.81;101490.28;2090406;28;20074;-59
2022/02/07 04:43:28;;;;;;;14.60;3.45;;;;;;;2.70;99.14;101485.09;2090329;28;20481;-61
2022/02/07 04:44:36;;;;;;;3.77;1.53;;;;;;;2.70;99.25;101495.41;2090369;28;20028;-59
2022/02/07 04:47:12;;;;;;;10.40;2.25;;;;;;;2.57;98.91;101487.66;2090332;28;20036;-59
2022/02/07 04:51:08;;;;;;;6.47;0.93;;;;;;;2.73;97.39;101503.16;2090375;28;20163;-60
2022/02/07 04:52:23;;;;;;;6.40;1.88;;;;;;;2.62;97.43;101512.59;2090309;28;20032;-59
2022/02/07 04:53:39;;;;;;;4.45;1.58;;;;;;;2.63;97.61;101515.16;2090378;28;20033;-59
2022/02/07 04:56:12;;;;;;;10.43;1.63;;;;;;;2.68;98.01;101521.22;2090298;28;20031;-60
2022/02/07 04:59:17;;;;;;;8.88;2.00;;;;;;;2.55;98.33;101532.34;2090449;28;20048;-60
2022/02/07 05:02:41;;;;;;;5.27;1.00;;;;;;;2.45;98.89;101534.03;2090298;28;20087;-60
2022/02/07 05:03:47;;;;;;;12.40;2.57;;;;;;;2.46;99.20;101537.47;2089330;28;20028;-59
2022/02/07 05:04:57;;;;;;;7.03;1.73;;;;;;;2.52;98.90;101543.50;2089073;28;20055;-59
2022/02/07 05:13:48;;;;;;;6.15;1.50;;;;;;;2.67;99.87;101552.13;2090165;28;20033;-59
2022/02/07 05:14:51;;;;;;;10.35;1.65;;;;;;;2.55;98.91;101553.81;2090114;28;20072;-60
2022/02/07 05:15:51;;;;;;;11.00;2.00;;;;;;;2.46;98.25;101548.63;2090055;28;20070;-59
2022/02/07 05:16:54;;;;;;;8.80;1.33;;;;;;;2.43;97.97;101552.06;2090133;28;20032;-59
2022/02/07 05:17:54;;;;;;;5.40;1.73;;;;;;;2.38;97.35;101555.47;2090128;28;20028;-59
2022/02/07 05:19:01;;;;;;;5.43;1.47;;;;;;;2.37;97.98;101564.06;2089553;28;20398;-60
2022/02/07 05:20:03;;;;;;;12.07;1.90;;;;;;;2.38;98.22;101564.06;2089592;28;20096;-60
2022/02/07 05:21:03;;;;;;;4.68;1.48;;;;;;;2.50;98.66;101576.13;2090111;28;20397;-60
2022/02/07 05:22:04;;;;;;;4.63;1.47;;;;;;;2.55;98.26;101573.56;2089465;28;20123;-59
2022/02/07 05:23:04;;;;;;;4.70;1.40;;;;;;;2.49;98.28;101584.72;2089526;28;20044;-60
2022/02/07 05:24:04;;;;;;;7.67;1.60;;;;;;;2.55;98.64;101584.75;2089491;28;20033;-60
2022/02/07 05:25:05;;;;;;;8.37;1.60;;;;;;;2.62;98.62;101577.00;2090135;28;20033;-59
2022/02/07 05:26:06;;;;;;;5.43;1.77;;;;;;;2.66;98.51;101587.34;2089940;28;20036;-59
2022/02/07 05:27:06;;;;;;;10.47;2.30;;;;;;;2.77;98.94;101589.94;2090127;28;20074;-60
2022/02/07 05:28:06;;;;;;;7.30;1.50;;;;;;;2.72;97.40;101590.78;2090080;28;20043;-60
2022/02/07 05:29:07;;;;;;;5.03;1.20;;;;;;;2.79;98.54;101597.69;2090151;28;20021;-60
2022/02/07 05:30:07;;;;;;;13.97;3.10;;;;;;;2.87;97.85;101595.13;2090089;28;20047;-59
2022/02/07 05:31:08;;;;;;;6.95;1.38;;;;;;;2.81;96.17;101601.97;2090131;28;20454;-59
2022/02/07 05:32:09;;;;;;;8.57;1.90;;;;;;;2.79;95.97;101603.72;2090087;28;20052;-59
2022/02/07 05:33:09;;;;;;;10.00;1.17;;;;;;;2.83;96.37;101605.44;2090097;28;20471;-59
2022/02/07 05:34:10;;;;;;;7.13;1.90;;;;;;;2.86;96.78;101603.69;2090085;28;20585;-58
2022/02/07 05:35:10;;;;;;;7.68;1.63;;;;;;;2.85;95.15;101602.00;2090143;28;20013;-59
2022/02/07 05:36:10;;;;;;;9.05;1.73;;;;;;;2.92;95.83;101609.75;2089393;28;20060;-59
2022/02/07 05:37:13;;;;;;;14.23;3.17;;;;;;;2.93;96.30;101606.31;2089543;28;20060;-59
2022/02/07 05:38:13;;;;;;;6.75;1.67;;;;;;;2.93;94.29;101600.28;2090021;28;20067;-59
2022/02/07 05:39:18;;;;;;;3.93;1.60;;;;;;;3.04;95.10;101614.06;2090050;28;20420;-59
2022/02/07 05:40:30;;;;;;;6.60;1.65;;;;;;;3.17;95.19;101609.78;2089354;28;20021;-59
2022/02/07 05:41:31;;;;;;;7.00;1.40;;;;;;;3.27;94.39;101615.81;2089536;28;20544;-59
2022/02/07 05:42:32;;;;;;;11.98;2.25;;;;;;;3.32;93.88;101619.25;2090074;28;20079;-60
2022/02/07 05:43:33;;;;;;;;;;;;;;;3.28;95.72;101621.84;2089727;28;20040;-60
2022/02/07 05:44:34;;;;;;;7.57;1.77;;;;;;;3.11;92.75;101617.50;2089451;28;19912;-59
2022/02/07 05:45:35;;;;;;;10.18;1.50;;;;;;;3.20;93.51;101624.41;2089997;28;20073;-59
2022/02/07 05:46:36;;;;;;;5.35;1.48;;;;;;;3.20;92.94;101626.97;2090061;28;20025;-59
2022/02/07 05:47:36;;;;;;;6.23;1.40;;;;;;;3.40;94.38;101626.13;2089826;28;20467;-61
2022/02/07 05:48:36;;;;;;;7.27;2.17;;;;;;;3.32;92.58;101628.72;2090060;28;20025;-60
2022/02/07 05:49:37;;;;;;;4.40;1.03;;;;;;;3.29;92.56;101626.97;2090043;28;20382;-60
2022/02/07 05:50:37;;;;;;;5.72;1.25;;;;;;;3.35;93.07;101636.44;2089871;28;20029;-60
2022/02/07 05:51:37;;;;;;;10.60;2.60;;;;;;;3.44;92.83;101640.75;2089941;28;20051;-58
2022/02/07 05:52:38;;;;;;;6.67;1.53;;;;;;;3.44;91.73;101649.38;2089979;28;20033;-59
2022/02/07 05:53:38;;;;;;;4.40;1.23;;;;;;;3.34;90.21;101643.34;2089983;28;20464;-58
2022/02/07 05:54:38;;;;;;;8.77;2.60;;;;;;;3.39;91.61;101645.06;2090051;28;20100;-59
2022/02/07 05:55:38;;;;;;;12.80;2.63;;;;;;;3.29;90.43;101645.03;2090014;28;20096;-58
2022/02/07 05:56:39;;;;;;;7.40;1.53;;;;;;;3.37;93.57;101649.34;2090050;28;20111;-59
2022/02/07 05:57:39;;;;;;;4.70;0.93;;;;;;;3.38;93.37;101648.50;2090032;28;20056;-59
2022/02/07 05:58:39;;;;;;;8.07;2.33;;;;;;;3.40;92.08;101657.09;2089941;28;20044;-60
2022/02/07 05:59:40;;;;;;;6.57;1.70;;;;;;;3.33;91.72;101657.09;2090016;28;20021;-59
2022/02/07 06:00:40;;;;;;;8.93;1.63;;;;;;;3.32;90.75;101649.38;2089309;28;20421;-59
2022/02/07 06:01:40;;;;;;;8.80;2.10;;;;;;;3.33;91.55;101664.84;2089389;28;20029;-59
2022/02/07 06:02:41;;;;;;;6.47;1.40;;;;;;;3.27;91.23;101662.25;2089127;28;20472;-59
2022/02/07 06:03:41;;;;;;;6.93;1.20;;;;;;;3.22;90.35;101663.97;2080975;28;20112;-60
2022/02/07 06:04:41;;;;;;;6.23;1.60;;;;;;;3.23;90.72;101670.84;2089376;28;20311;-60
2022/02/07 06:05:42;;;;;;;5.83;1.17;;;;;;;3.24;90.84;101672.56;2089354;28;20526;-60
2022/02/07 06:06:42;;;;;;;13.90;1.53;;;;;;;3.28;91.61;101671.69;2089358;28;20036;-60
2022/02/07 06:07:42;;;;;;;8.17;1.23;;;;;;;3.35;91.86;101681.19;2089955;28;20037;-59
2022/02/07 06:08:42;;;;;;;10.57;2.10;;;;;;;3.34;91.44;101674.31;2090000;28;20033;-59
2022/02/07 06:09:43;;;;;;;10.17;1.50;;;;;;;3.46;91.30;101680.34;2089289;28;20108;-60
2022/02/07 06:10:44;;;;;;;9.17;2.23;;;;;;;3.43;90.45;101678.63;2089295;28;20494;-60
2022/02/07 06:11:44;;;;;;;11.10;2.83;;;;;;;3.42;91.68;101684.63;2089923;28;20067;-60
2022/02/07 06:12:47;;;;;;;6.93;0.90;;;;;;;3.46;93.75;101683.75;2089316;28;20079;-60
2022/02/07 06:13:47;;;;;;;6.68;1.08;;;;;;;3.43;90.78;101688.94;2089294;28;20049;-59